Heron, Montana
Current Conditions -  °F | °C
As of 11:55 AM on Sunday 23 Nov 2014 (Local Time) from KSZT Reporting Station
Light Rain Light Rain  
Wind Chill: 29°   Ceiling: 1100
Heat Index: 34°   Visibility: 10mi
Dew Point: 34°   Wind: 6mph
Humidity: 100%   Direction: 200°SSW
Pressure: 30.07"   Gusts: NA
Location:  48.06°N, 115.96°W
Report Text: KSZT 231855Z AUTO 20005KT 10SM -RA OVC011 01/01 A3007 RMK AO2
Loading
Personal Weather Stations






























Interactive Weather Map New forecast layout! Learn more

10-Day Weather Forecast

Advertisements
Track Severe Weather on mobile